Terminal Aerodrome Forecast
Issued by NWS Newport/Morehead City, NC

Home | Current Version | Previous Version | Graphics & Text | Print | Product List | Glossary On
Versions: 1 2 3 4 5 6 7 8 9 10 11 12 13 14 15 16 17
577
FTUS42 KMHX 230533
TAFEWN
TAF
KEWN 230533Z 2306/2406 18010KT P6SM OVC250
     FM230900 18010KT P6SM VCSH OVC035
     FM231200 19010KT 6SM -SHRA OVC025
     FM231800 22015G25KT P6SM BKN010
     FM232000 23015G20KT P6SM SCT015
     FM232300 24010G15KT P6SM SCT020
     FM240500 29005KT P6SM SKC=

USA.gov is the U.S. government's official web portal to all federal, state and local government web resources and services.